sensor_id;sensor_type;location;lat;lon;timestamp;P1;durP1;ratioP1;P2;durP2;ratioP2
23634;SDS011;11994;51.038;16.974;2023-07-24T00:00:25;5.60;;;3.40;;
23634;SDS011;11994;51.038;16.974;2023-07-24T00:02:50;8.40;;;3.60;;
23634;SDS011;11994;51.038;16.974;2023-07-24T00:05:16;7.90;;;3.40;;
23634;SDS011;11994;51.038;16.974;2023-07-24T00:07:41;6.70;;;3.70;;
23634;SDS011;11994;51.038;16.974;2023-07-24T00:10:07;8.60;;;4.00;;
23634;SDS011;11994;51.038;16.974;2023-07-24T00:12:32;5.60;;;3.60;;
23634;SDS011;11994;51.038;16.974;2023-07-24T00:14:58;10.90;;;3.30;;
23634;SDS011;11994;51.038;16.974;2023-07-24T00:17:23;6.70;;;4.00;;
23634;SDS011;11994;51.038;16.974;2023-07-24T00:19:49;6.90;;;3.60;;
23634;SDS011;11994;51.038;16.974;2023-07-24T00:22:14;8.50;;;3.70;;
23634;SDS011;11994;51.038;16.974;2023-07-24T00:24:39;6.10;;;3.70;;
23634;SDS011;11994;51.038;16.974;2023-07-24T00:27:05;7.50;;;3.50;;
23634;SDS011;11994;51.038;16.974;2023-07-24T00:29:30;9.20;;;3.80;;
23634;SDS011;11994;51.038;16.974;2023-07-24T00:31:56;8.80;;;3.60;;
23634;SDS011;11994;51.038;16.974;2023-07-24T00:34:21;10.00;;;3.50;;
23634;SDS011;11994;51.038;16.974;2023-07-24T00:36:46;8.60;;;4.30;;
23634;SDS011;11994;51.038;16.974;2023-07-24T00:39:13;6.50;;;3.30;;
23634;SDS011;11994;51.038;16.974;2023-07-24T00:41:40;7.80;;;3.60;;
23634;SDS011;11994;51.038;16.974;2023-07-24T00:44:05;8.40;;;3.70;;
23634;SDS011;11994;51.038;16.974;2023-07-24T00:46:30;9.70;;;4.00;;
23634;SDS011;11994;51.038;16.974;2023-07-24T00:48:57;6.40;;;3.50;;
23634;SDS011;11994;51.038;16.974;2023-07-24T00:51:24;9.50;;;3.40;;
23634;SDS011;11994;51.038;16.974;2023-07-24T00:53:52;9.70;;;3.70;;
23634;SDS011;11994;51.038;16.974;2023-07-24T00:56:20;11.10;;;3.70;;
23634;SDS011;11994;51.038;16.974;2023-07-24T00:58:46;7.20;;;3.70;;
23634;SDS011;11994;51.038;16.974;2023-07-24T01:01:13;9.40;;;3.70;;
23634;SDS011;11994;51.038;16.974;2023-07-24T01:03:39;11.10;;;3.80;;
23634;SDS011;11994;51.038;16.974;2023-07-24T01:06:04;13.30;;;4.00;;
23634;SDS011;11994;51.038;16.974;2023-07-24T01:08:30;8.60;;;3.90;;
23634;SDS011;11994;51.038;16.974;2023-07-24T01:11:00;9.40;;;3.80;;
23634;SDS011;11994;51.038;16.974;2023-07-24T01:13:52;11.80;;;3.50;;
23634;SDS011;11994;51.038;16.974;2023-07-24T01:16:38;8.10;;;3.50;;
23634;SDS011;11994;51.038;16.974;2023-07-24T01:19:15;13.20;;;4.00;;
23634;SDS011;11994;51.038;16.974;2023-07-24T01:25:00;10.30;;;3.30;;
23634;SDS011;11994;51.038;16.974;2023-07-24T01:27:47;10.10;;;3.70;;
23634;SDS011;11994;51.038;16.974;2023-07-24T01:30:14;12.10;;;3.80;;
23634;SDS011;11994;51.038;16.974;2023-07-24T01:32:42;15.00;;;4.00;;
23634;SDS011;11994;51.038;16.974;2023-07-24T01:35:07;9.70;;;3.80;;
23634;SDS011;11994;51.038;16.974;2023-07-24T01:37:34;10.40;;;3.70;;
23634;SDS011;11994;51.038;16.974;2023-07-24T01:40:00;12.40;;;3.90;;
23634;SDS011;11994;51.038;16.974;2023-07-24T01:42:27;12.40;;;3.60;;
23634;SDS011;11994;51.038;16.974;2023-07-24T01:44:54;9.40;;;3.90;;
23634;SDS011;11994;51.038;16.974;2023-07-24T01:47:20;7.30;;;4.10;;
23634;SDS011;11994;51.038;16.974;2023-07-24T01:49:46;7.80;;;3.60;;
23634;SDS011;11994;51.038;16.974;2023-07-24T01:52:12;9.20;;;3.70;;
23634;SDS011;11994;51.038;16.974;2023-07-24T01:54:38;16.10;;;3.90;;
23634;SDS011;11994;51.038;16.974;2023-07-24T01:57:03;9.90;;;3.70;;
23634;SDS011;11994;51.038;16.974;2023-07-24T01:59:29;12.10;;;4.20;;
23634;SDS011;11994;51.038;16.974;2023-07-24T02:01:54;9.70;;;3.70;;
23634;SDS011;11994;51.038;16.974;2023-07-24T02:04:20;11.60;;;4.50;;
23634;SDS011;11994;51.038;16.974;2023-07-24T02:06:47;13.40;;;4.30;;
23634;SDS011;11994;51.038;16.974;2023-07-24T02:09:14;15.40;;;4.30;;
23634;SDS011;11994;51.038;16.974;2023-07-24T02:11:40;13.40;;;4.00;;
23634;SDS011;11994;51.038;16.974;2023-07-24T02:14:05;15.70;;;4.50;;
23634;SDS011;11994;51.038;16.974;2023-07-24T02:16:30;9.60;;;4.40;;
23634;SDS011;11994;51.038;16.974;2023-07-24T02:18:56;12.40;;;3.90;;
23634;SDS011;11994;51.038;16.974;2023-07-24T02:21:21;11.30;;;3.80;;
23634;SDS011;11994;51.038;16.974;2023-07-24T02:23:47;14.60;;;4.60;;
23634;SDS011;11994;51.038;16.974;2023-07-24T02:26:12;13.90;;;4.00;;
23634;SDS011;11994;51.038;16.974;2023-07-24T02:28:37;11.80;;;3.90;;
23634;SDS011;11994;51.038;16.974;2023-07-24T02:31:03;8.00;;;3.90;;
23634;SDS011;11994;51.038;16.974;2023-07-24T02:33:28;8.70;;;4.20;;
23634;SDS011;11994;51.038;16.974;2023-07-24T02:35:53;11.30;;;4.70;;
23634;SDS011;11994;51.038;16.974;2023-07-24T02:38:19;11.30;;;4.20;;
23634;SDS011;11994;51.038;16.974;2023-07-24T02:40:44;12.70;;;4.30;;
23634;SDS011;11994;51.038;16.974;2023-07-24T02:43:10;10.60;;;3.90;;
23634;SDS011;11994;51.038;16.974;2023-07-24T02:45:38;7.90;;;4.00;;
23634;SDS011;11994;51.038;16.974;2023-07-24T02:48:04;7.90;;;4.10;;
23634;SDS011;11994;51.038;16.974;2023-07-24T02:50:30;10.40;;;4.20;;
23634;SDS011;11994;51.038;16.974;2023-07-24T02:52:55;9.30;;;3.70;;
23634;SDS011;11994;51.038;16.974;2023-07-24T02:55:21;9.80;;;4.10;;
23634;SDS011;11994;51.038;16.974;2023-07-24T02:57:46;8.90;;;4.10;;
23634;SDS011;11994;51.038;16.974;2023-07-24T03:00:12;9.30;;;4.40;;
23634;SDS011;11994;51.038;16.974;2023-07-24T03:02:38;8.50;;;4.30;;
23634;SDS011;11994;51.038;16.974;2023-07-24T03:05:03;10.80;;;4.10;;
23634;SDS011;11994;51.038;16.974;2023-07-24T03:07:29;8.20;;;4.10;;
23634;SDS011;11994;51.038;16.974;2023-07-24T03:09:54;8.80;;;3.70;;
23634;SDS011;11994;51.038;16.974;2023-07-24T03:12:20;7.90;;;3.60;;
23634;SDS011;11994;51.038;16.974;2023-07-24T03:14:46;11.60;;;3.60;;
23634;SDS011;11994;51.038;16.974;2023-07-24T03:17:12;8.30;;;3.70;;
23634;SDS011;11994;51.038;16.974;2023-07-24T03:19:37;8.20;;;3.90;;
23634;SDS011;11994;51.038;16.974;2023-07-24T03:22:02;9.10;;;3.60;;
23634;SDS011;11994;51.038;16.974;2023-07-24T03:24:28;7.60;;;3.90;;
23634;SDS011;11994;51.038;16.974;2023-07-24T03:26:53;5.70;;;3.70;;
23634;SDS011;11994;51.038;16.974;2023-07-24T03:29:19;7.70;;;3.60;;
23634;SDS011;11994;51.038;16.974;2023-07-24T03:31:44;8.90;;;3.90;;
23634;SDS011;11994;51.038;16.974;2023-07-24T03:34:09;9.80;;;4.40;;
23634;SDS011;11994;51.038;16.974;2023-07-24T03:36:35;7.40;;;3.80;;
23634;SDS011;11994;51.038;16.974;2023-07-24T03:39:01;7.40;;;3.40;;
23634;SDS011;11994;51.038;16.974;2023-07-24T03:41:26;8.10;;;4.10;;
23634;SDS011;11994;51.038;16.974;2023-07-24T03:43:51;6.20;;;3.50;;
23634;SDS011;11994;51.038;16.974;2023-07-24T03:46:17;7.90;;;4.20;;
23634;SDS011;11994;51.038;16.974;2023-07-24T03:48:42;9.20;;;4.10;;
23634;SDS011;11994;51.038;16.974;2023-07-24T03:51:07;8.30;;;3.80;;
23634;SDS011;11994;51.038;16.974;2023-07-24T03:53:33;6.50;;;3.70;;
23634;SDS011;11994;51.038;16.974;2023-07-24T03:55:58;8.50;;;3.60;;
23634;SDS011;11994;51.038;16.974;2023-07-24T03:58:24;10.20;;;3.70;;
23634;SDS011;11994;51.038;16.974;2023-07-24T04:00:49;6.40;;;3.40;;
23634;SDS011;11994;51.038;16.974;2023-07-24T04:03:15;7.20;;;3.50;;
23634;SDS011;11994;51.038;16.974;2023-07-24T04:05:41;7.80;;;3.70;;
23634;SDS011;11994;51.038;16.974;2023-07-24T04:08:06;8.40;;;3.50;;
23634;SDS011;11994;51.038;16.974;2023-07-24T04:10:31;7.40;;;3.80;;
23634;SDS011;11994;51.038;16.974;2023-07-24T04:12:57;12.70;;;4.10;;
23634;SDS011;11994;51.038;16.974;2023-07-24T04:15:22;12.00;;;3.60;;
23634;SDS011;11994;51.038;16.974;2023-07-24T04:17:48;8.00;;;3.80;;
23634;SDS011;11994;51.038;16.974;2023-07-24T04:20:13;9.10;;;3.90;;
23634;SDS011;11994;51.038;16.974;2023-07-24T04:22:39;7.40;;;3.80;;
23634;SDS011;11994;51.038;16.974;2023-07-24T04:25:04;6.70;;;3.90;;
23634;SDS011;11994;51.038;16.974;2023-07-24T04:27:30;7.40;;;3.60;;
23634;SDS011;11994;51.038;16.974;2023-07-24T04:29:55;6.50;;;3.60;;
23634;SDS011;11994;51.038;16.974;2023-07-24T04:32:21;7.70;;;3.80;;
23634;SDS011;11994;51.038;16.974;2023-07-24T04:34:46;8.60;;;4.00;;
23634;SDS011;11994;51.038;16.974;2023-07-24T04:37:12;5.90;;;3.80;;
23634;SDS011;11994;51.038;16.974;2023-07-24T04:39:40;7.40;;;3.70;;
23634;SDS011;11994;51.038;16.974;2023-07-24T04:42:05;6.00;;;3.80;;
23634;SDS011;11994;51.038;16.974;2023-07-24T04:44:31;8.10;;;4.20;;
23634;SDS011;11994;51.038;16.974;2023-07-24T04:46:59;5.40;;;3.80;;
23634;SDS011;11994;51.038;16.974;2023-07-24T04:49:28;6.20;;;3.90;;
23634;SDS011;11994;51.038;16.974;2023-07-24T04:51:54;6.00;;;3.80;;
23634;SDS011;11994;51.038;16.974;2023-07-24T04:54:19;6.90;;;3.40;;
23634;SDS011;11994;51.038;16.974;2023-07-24T04:56:44;6.50;;;4.00;;
23634;SDS011;11994;51.038;16.974;2023-07-24T04:59:10;5.40;;;3.70;;
23634;SDS011;11994;51.038;16.974;2023-07-24T05:01:35;6.20;;;3.40;;
23634;SDS011;11994;51.038;16.974;2023-07-24T05:04:00;7.60;;;3.90;;
23634;SDS011;11994;51.038;16.974;2023-07-24T05:06:26;10.30;;;3.70;;
23634;SDS011;11994;51.038;16.974;2023-07-24T05:08:52;5.70;;;3.90;;
23634;SDS011;11994;51.038;16.974;2023-07-24T05:11:18;5.80;;;3.80;;
23634;SDS011;11994;51.038;16.974;2023-07-24T05:13:43;6.40;;;3.70;;
23634;SDS011;11994;51.038;16.974;2023-07-24T05:16:09;7.10;;;3.90;;
23634;SDS011;11994;51.038;16.974;2023-07-24T05:18:34;5.40;;;3.50;;
23634;SDS011;11994;51.038;16.974;2023-07-24T05:20:59;6.40;;;4.30;;
23634;SDS011;11994;51.038;16.974;2023-07-24T05:23:25;6.10;;;3.90;;
23634;SDS011;11994;51.038;16.974;2023-07-24T05:25:56;6.90;;;4.40;;
23634;SDS011;11994;51.038;16.974;2023-07-24T05:28:28;4.90;;;3.90;;
23634;SDS011;11994;51.038;16.974;2023-07-24T05:30:55;7.00;;;4.00;;
23634;SDS011;11994;51.038;16.974;2023-07-24T05:33:20;7.00;;;4.20;;
23634;SDS011;11994;51.038;16.974;2023-07-24T05:35:48;5.70;;;4.00;;
23634;SDS011;11994;51.038;16.974;2023-07-24T05:38:13;7.90;;;4.10;;
23634;SDS011;11994;51.038;16.974;2023-07-24T05:40:39;7.00;;;3.70;;
23634;SDS011;11994;51.038;16.974;2023-07-24T05:43:04;7.40;;;4.10;;
23634;SDS011;11994;51.038;16.974;2023-07-24T05:45:29;7.00;;;3.80;;
23634;SDS011;11994;51.038;16.974;2023-07-24T05:47:55;6.00;;;4.10;;
23634;SDS011;11994;51.038;16.974;2023-07-24T05:50:21;8.00;;;4.10;;
23634;SDS011;11994;51.038;16.974;2023-07-24T05:52:46;5.80;;;4.20;;
23634;SDS011;11994;51.038;16.974;2023-07-24T05:55:12;7.20;;;4.20;;
23634;SDS011;11994;51.038;16.974;2023-07-24T05:57:37;10.10;;;4.20;;
23634;SDS011;11994;51.038;16.974;2023-07-24T06:00:06;9.40;;;4.20;;
23634;SDS011;11994;51.038;16.974;2023-07-24T06:02:32;6.60;;;4.10;;
23634;SDS011;11994;51.038;16.974;2023-07-24T06:04:57;6.90;;;4.30;;
23634;SDS011;11994;51.038;16.974;2023-07-24T06:07:23;5.80;;;3.90;;
23634;SDS011;11994;51.038;16.974;2023-07-24T06:09:48;7.70;;;4.30;;
23634;SDS011;11994;51.038;16.974;2023-07-24T06:12:14;6.60;;;4.40;;
23634;SDS011;11994;51.038;16.974;2023-07-24T06:14:40;6.40;;;4.30;;
23634;SDS011;11994;51.038;16.974;2023-07-24T06:17:05;9.10;;;5.40;;
23634;SDS011;11994;51.038;16.974;2023-07-24T06:19:30;6.50;;;4.80;;
23634;SDS011;11994;51.038;16.974;2023-07-24T06:21:56;10.10;;;5.40;;
23634;SDS011;11994;51.038;16.974;2023-07-24T06:24:21;5.80;;;4.00;;
23634;SDS011;11994;51.038;16.974;2023-07-24T06:26:48;7.70;;;4.10;;
23634;SDS011;11994;51.038;16.974;2023-07-24T06:29:14;7.40;;;4.10;;
23634;SDS011;11994;51.038;16.974;2023-07-24T06:31:40;9.60;;;4.20;;
23634;SDS011;11994;51.038;16.974;2023-07-24T06:34:06;6.30;;;4.20;;
23634;SDS011;11994;51.038;16.974;2023-07-24T06:36:31;5.90;;;4.00;;
23634;SDS011;11994;51.038;16.974;2023-07-24T06:38:56;5.90;;;4.00;;
23634;SDS011;11994;51.038;16.974;2023-07-24T06:41:22;7.10;;;4.70;;
23634;SDS011;11994;51.038;16.974;2023-07-24T06:43:48;6.20;;;4.10;;
23634;SDS011;11994;51.038;16.974;2023-07-24T06:46:14;7.70;;;4.40;;
23634;SDS011;11994;51.038;16.974;2023-07-24T06:48:39;7.50;;;4.10;;
23634;SDS011;11994;51.038;16.974;2023-07-24T06:51:05;8.40;;;4.10;;
23634;SDS011;11994;51.038;16.974;2023-07-24T06:53:30;5.90;;;4.40;;
23634;SDS011;11994;51.038;16.974;2023-07-24T06:55:55;6.30;;;3.80;;
23634;SDS011;11994;51.038;16.974;2023-07-24T06:58:21;11.50;;;4.10;;
23634;SDS011;11994;51.038;16.974;2023-07-24T07:00:46;6.00;;;4.00;;
23634;SDS011;11994;51.038;16.974;2023-07-24T07:03:11;9.30;;;4.40;;
23634;SDS011;11994;51.038;16.974;2023-07-24T07:05:37;6.50;;;4.30;;
23634;SDS011;11994;51.038;16.974;2023-07-24T07:08:02;7.30;;;4.40;;
23634;SDS011;11994;51.038;16.974;2023-07-24T07:10:28;5.20;;;4.10;;
23634;SDS011;11994;51.038;16.974;2023-07-24T07:12:53;7.40;;;4.10;;
23634;SDS011;11994;51.038;16.974;2023-07-24T07:15:18;5.50;;;4.10;;
23634;SDS011;11994;51.038;16.974;2023-07-24T07:17:44;6.80;;;4.00;;
23634;SDS011;11994;51.038;16.974;2023-07-24T07:20:09;6.70;;;4.20;;
23634;SDS011;11994;51.038;16.974;2023-07-24T07:22:34;6.20;;;4.10;;
23634;SDS011;11994;51.038;16.974;2023-07-24T07:25:00;7.90;;;4.20;;
23634;SDS011;11994;51.038;16.974;2023-07-24T07:27:25;6.20;;;4.10;;
23634;SDS011;11994;51.038;16.974;2023-07-24T07:29:50;6.70;;;4.10;;
23634;SDS011;11994;51.038;16.974;2023-07-24T07:32:16;8.20;;;4.30;;
23634;SDS011;11994;51.038;16.974;2023-07-24T07:34:41;8.00;;;4.00;;
23634;SDS011;11994;51.038;16.974;2023-07-24T07:37:07;7.70;;;4.10;;
23634;SDS011;11994;51.038;16.974;2023-07-24T07:39:32;10.30;;;4.00;;
23634;SDS011;11994;51.038;16.974;2023-07-24T07:41:58;5.90;;;3.80;;
23634;SDS011;11994;51.038;16.974;2023-07-24T07:44:23;5.40;;;4.00;;
23634;SDS011;11994;51.038;16.974;2023-07-24T07:46:48;5.80;;;4.50;;
23634;SDS011;11994;51.038;16.974;2023-07-24T07:49:14;6.70;;;4.60;;
23634;SDS011;11994;51.038;16.974;2023-07-24T07:51:39;9.70;;;4.90;;
23634;SDS011;11994;51.038;16.974;2023-07-24T07:54:05;6.80;;;4.50;;
23634;SDS011;11994;51.038;16.974;2023-07-24T07:56:30;7.10;;;4.70;;
23634;SDS011;11994;51.038;16.974;2023-07-24T07:58:55;7.80;;;5.30;;
23634;SDS011;11994;51.038;16.974;2023-07-24T08:01:21;7.10;;;4.90;;
23634;SDS011;11994;51.038;16.974;2023-07-24T08:03:46;7.20;;;5.00;;
23634;SDS011;11994;51.038;16.974;2023-07-24T08:06:11;8.20;;;5.10;;
23634;SDS011;11994;51.038;16.974;2023-07-24T08:08:37;6.60;;;4.70;;
23634;SDS011;11994;51.038;16.974;2023-07-24T08:11:06;7.30;;;5.00;;
23634;SDS011;11994;51.038;16.974;2023-07-24T08:13:33;9.70;;;5.20;;
23634;SDS011;11994;51.038;16.974;2023-07-24T08:15:59;6.60;;;4.60;;
23634;SDS011;11994;51.038;16.974;2023-07-24T08:18:25;7.10;;;4.80;;
23634;SDS011;11994;51.038;16.974;2023-07-24T08:20:51;9.30;;;5.30;;
23634;SDS011;11994;51.038;16.974;2023-07-24T08:23:16;8.40;;;4.90;;
23634;SDS011;11994;51.038;16.974;2023-07-24T08:26:02;8.60;;;4.60;;
23634;SDS011;11994;51.038;16.974;2023-07-24T08:28:27;7.30;;;5.20;;
23634;SDS011;11994;51.038;16.974;2023-07-24T08:30:59;7.90;;;4.90;;
23634;SDS011;11994;51.038;16.974;2023-07-24T08:33:26;7.90;;;5.10;;
23634;SDS011;11994;51.038;16.974;2023-07-24T08:36:04;6.20;;;5.10;;
23634;SDS011;11994;51.038;16.974;2023-07-24T08:38:31;7.40;;;5.00;;
23634;SDS011;11994;51.038;16.974;2023-07-24T08:43:36;6.00;;;4.70;;
23634;SDS011;11994;51.038;16.974;2023-07-24T08:46:03;7.60;;;4.80;;
23634;SDS011;11994;51.038;16.974;2023-07-24T08:48:30;6.00;;;4.80;;
23634;SDS011;11994;51.038;16.974;2023-07-24T08:51:07;8.60;;;5.10;;
23634;SDS011;11994;51.038;16.974;2023-07-24T08:53:34;8.70;;;4.50;;
23634;SDS011;11994;51.038;16.974;2023-07-24T08:56:04;6.80;;;4.80;;
23634;SDS011;11994;51.038;16.974;2023-07-24T08:58:31;12.50;;;5.00;;
23634;SDS011;11994;51.038;16.974;2023-07-24T09:00:57;6.70;;;5.40;;
23634;SDS011;11994;51.038;16.974;2023-07-24T09:03:23;6.20;;;4.70;;
23634;SDS011;11994;51.038;16.974;2023-07-24T09:05:49;8.40;;;5.30;;
23634;SDS011;11994;51.038;16.974;2023-07-24T09:08:14;8.50;;;5.00;;
23634;SDS011;11994;51.038;16.974;2023-07-24T09:10:40;9.60;;;5.20;;
23634;SDS011;11994;51.038;16.974;2023-07-24T09:13:05;8.30;;;5.40;;
23634;SDS011;11994;51.038;16.974;2023-07-24T09:15:41;6.50;;;5.10;;
23634;SDS011;11994;51.038;16.974;2023-07-24T09:18:08;8.30;;;5.40;;
23634;SDS011;11994;51.038;16.974;2023-07-24T09:20:41;10.00;;;5.20;;
23634;SDS011;11994;51.038;16.974;2023-07-24T09:23:08;8.10;;;4.70;;
23634;SDS011;11994;51.038;16.974;2023-07-24T09:25:35;7.60;;;4.70;;
23634;SDS011;11994;51.038;16.974;2023-07-24T09:28:08;8.60;;;4.80;;
23634;SDS011;11994;51.038;16.974;2023-07-24T09:30:41;6.80;;;4.60;;
23634;SDS011;11994;51.038;16.974;2023-07-24T09:33:15;5.60;;;4.20;;
23634;SDS011;11994;51.038;16.974;2023-07-24T09:35:41;6.50;;;4.90;;
23634;SDS011;11994;51.038;16.974;2023-07-24T09:38:10;6.20;;;4.50;;
23634;SDS011;11994;51.038;16.974;2023-07-24T09:40:41;5.90;;;4.80;;
23634;SDS011;11994;51.038;16.974;2023-07-24T09:45:40;6.80;;;4.80;;
23634;SDS011;11994;51.038;16.974;2023-07-24T09:48:06;8.40;;;5.00;;
23634;SDS011;11994;51.038;16.974;2023-07-24T09:50:36;6.60;;;4.90;;
23634;SDS011;11994;51.038;16.974;2023-07-24T09:53:01;6.60;;;5.10;;
23634;SDS011;11994;51.038;16.974;2023-07-24T09:55:30;12.70;;;5.00;;
23634;SDS011;11994;51.038;16.974;2023-07-24T09:58:03;8.20;;;5.00;;
23634;SDS011;11994;51.038;16.974;2023-07-24T10:00:30;7.40;;;4.90;;
23634;SDS011;11994;51.038;16.974;2023-07-24T10:02:56;8.90;;;5.10;;
23634;SDS011;11994;51.038;16.974;2023-07-24T10:05:22;8.60;;;5.20;;
23634;SDS011;11994;51.038;16.974;2023-07-24T10:07:48;9.90;;;5.10;;
23634;SDS011;11994;51.038;16.974;2023-07-24T10:10:15;8.30;;;5.00;;
23634;SDS011;11994;51.038;16.974;2023-07-24T10:12:41;8.20;;;4.70;;
23634;SDS011;11994;51.038;16.974;2023-07-24T10:15:07;6.30;;;4.70;;
23634;SDS011;11994;51.038;16.974;2023-07-24T10:17:36;7.20;;;5.20;;
23634;SDS011;11994;51.038;16.974;2023-07-24T10:20:06;7.80;;;5.10;;
23634;SDS011;11994;51.038;16.974;2023-07-24T10:22:33;8.00;;;5.10;;
23634;SDS011;11994;51.038;16.974;2023-07-24T10:24:59;7.50;;;5.30;;
23634;SDS011;11994;51.038;16.974;2023-07-24T10:27:25;7.50;;;5.30;;
23634;SDS011;11994;51.038;16.974;2023-07-24T10:29:58;8.30;;;5.80;;
23634;SDS011;11994;51.038;16.974;2023-07-24T10:32:28;8.20;;;5.40;;
23634;SDS011;11994;51.038;16.974;2023-07-24T10:35:35;7.30;;;5.00;;
23634;SDS011;11994;51.038;16.974;2023-07-24T10:37:47;7.80;;;5.30;;
23634;SDS011;11994;51.038;16.974;2023-07-24T10:40:19;9.90;;;4.90;;
23634;SDS011;11994;51.038;16.974;2023-07-24T10:42:46;7.80;;;4.90;;
23634;SDS011;11994;51.038;16.974;2023-07-24T10:45:11;9.60;;;5.10;;
23634;SDS011;11994;51.038;16.974;2023-07-24T10:47:37;9.00;;;5.30;;
23634;SDS011;11994;51.038;16.974;2023-07-24T10:50:02;7.90;;;5.50;;
23634;SDS011;11994;51.038;16.974;2023-07-24T10:52:32;6.50;;;5.20;;
23634;SDS011;11994;51.038;16.974;2023-07-24T10:55:02;8.70;;;4.80;;
23634;SDS011;11994;51.038;16.974;2023-07-24T10:59:54;8.70;;;5.00;;
23634;SDS011;11994;51.038;16.974;2023-07-24T11:02:19;8.60;;;5.10;;
23634;SDS011;11994;51.038;16.974;2023-07-24T11:04:45;8.00;;;5.20;;
23634;SDS011;11994;51.038;16.974;2023-07-24T11:07:11;6.70;;;5.00;;
23634;SDS011;11994;51.038;16.974;2023-07-24T11:09:37;9.40;;;5.30;;
23634;SDS011;11994;51.038;16.974;2023-07-24T11:12:14;8.20;;;5.30;;
23634;SDS011;11994;51.038;16.974;2023-07-24T11:14:47;10.80;;;5.40;;
23634;SDS011;11994;51.038;16.974;2023-07-24T11:17:32;9.30;;;5.50;;
23634;SDS011;11994;51.038;16.974;2023-07-24T11:22:32;11.20;;;5.70;;
23634;SDS011;11994;51.038;16.974;2023-07-24T11:24:58;8.00;;;4.90;;
23634;SDS011;11994;51.038;16.974;2023-07-24T11:27:24;9.80;;;5.50;;
23634;SDS011;11994;51.038;16.974;2023-07-24T11:29:50;6.90;;;5.20;;
23634;SDS011;11994;51.038;16.974;2023-07-24T11:32:19;6.50;;;4.70;;
23634;SDS011;11994;51.038;16.974;2023-07-24T11:34:46;7.00;;;5.10;;
23634;SDS011;11994;51.038;16.974;2023-07-24T11:37:13;6.80;;;5.10;;
23634;SDS011;11994;51.038;16.974;2023-07-24T11:39:38;8.20;;;5.50;;
23634;SDS011;11994;51.038;16.974;2023-07-24T11:42:04;7.30;;;5.40;;
23634;SDS011;11994;51.038;16.974;2023-07-24T11:44:30;8.10;;;5.60;;
23634;SDS011;11994;51.038;16.974;2023-07-24T11:47:02;8.30;;;5.90;;
23634;SDS011;11994;51.038;16.974;2023-07-24T11:49:29;7.40;;;5.60;;
23634;SDS011;11994;51.038;16.974;2023-07-24T11:52:14;8.80;;;6.00;;
23634;SDS011;11994;51.038;16.974;2023-07-24T11:54:40;9.90;;;5.90;;
23634;SDS011;11994;51.038;16.974;2023-07-24T11:57:17;10.40;;;6.40;;
23634;SDS011;11994;51.038;16.974;2023-07-24T11:59:42;10.00;;;6.10;;
23634;SDS011;11994;51.038;16.974;2023-07-24T12:02:11;11.20;;;6.30;;
23634;SDS011;11994;51.038;16.974;2023-07-24T12:04:37;10.40;;;6.50;;
23634;SDS011;11994;51.038;16.974;2023-07-24T12:07:07;8.70;;;6.60;;
23634;SDS011;11994;51.038;16.974;2023-07-24T12:09:33;7.40;;;6.40;;
23634;SDS011;11994;51.038;16.974;2023-07-24T12:11:58;9.30;;;6.60;;
23634;SDS011;11994;51.038;16.974;2023-07-24T12:14:24;8.90;;;6.50;;
23634;SDS011;11994;51.038;16.974;2023-07-24T12:16:59;11.40;;;6.60;;
23634;SDS011;11994;51.038;16.974;2023-07-24T12:19:28;9.40;;;6.40;;
23634;SDS011;11994;51.038;16.974;2023-07-24T12:21:53;8.50;;;6.00;;
23634;SDS011;11994;51.038;16.974;2023-07-24T12:24:19;10.40;;;6.60;;
23634;SDS011;11994;51.038;16.974;2023-07-24T12:26:44;11.00;;;6.90;;
23634;SDS011;11994;51.038;16.974;2023-07-24T12:29:09;10.20;;;6.90;;
23634;SDS011;11994;51.038;16.974;2023-07-24T12:31:35;11.20;;;7.30;;
23634;SDS011;11994;51.038;16.974;2023-07-24T12:34:00;10.00;;;7.00;;
23634;SDS011;11994;51.038;16.974;2023-07-24T12:36:26;10.70;;;7.40;;
23634;SDS011;11994;51.038;16.974;2023-07-24T12:38:51;11.10;;;7.60;;
23634;SDS011;11994;51.038;16.974;2023-07-24T12:41:17;12.90;;;7.40;;
23634;SDS011;11994;51.038;16.974;2023-07-24T12:43:43;9.00;;;7.20;;
23634;SDS011;11994;51.038;16.974;2023-07-24T12:46:08;9.40;;;7.30;;
23634;SDS011;11994;51.038;16.974;2023-07-24T12:48:34;9.90;;;6.90;;
23634;SDS011;11994;51.038;16.974;2023-07-24T12:51:01;9.60;;;7.20;;
23634;SDS011;11994;51.038;16.974;2023-07-24T12:53:26;10.10;;;7.60;;
23634;SDS011;11994;51.038;16.974;2023-07-24T12:55:52;10.10;;;7.50;;
23634;SDS011;11994;51.038;16.974;2023-07-24T12:58:17;10.60;;;7.50;;
23634;SDS011;11994;51.038;16.974;2023-07-24T13:00:42;9.60;;;6.90;;
23634;SDS011;11994;51.038;16.974;2023-07-24T13:03:08;9.60;;;7.30;;
23634;SDS011;11994;51.038;16.974;2023-07-24T13:05:33;11.60;;;7.40;;
23634;SDS011;11994;51.038;16.974;2023-07-24T13:07:59;11.40;;;7.50;;
23634;SDS011;11994;51.038;16.974;2023-07-24T13:10:24;10.10;;;7.00;;
23634;SDS011;11994;51.038;16.974;2023-07-24T13:12:49;11.90;;;7.40;;
23634;SDS011;11994;51.038;16.974;2023-07-24T13:15:14;11.60;;;7.10;;
23634;SDS011;11994;51.038;16.974;2023-07-24T13:17:40;12.80;;;7.00;;
23634;SDS011;11994;51.038;16.974;2023-07-24T13:20:05;11.10;;;7.30;;
23634;SDS011;11994;51.038;16.974;2023-07-24T13:22:31;13.40;;;7.00;;
23634;SDS011;11994;51.038;16.974;2023-07-24T13:24:57;10.50;;;7.20;;
23634;SDS011;11994;51.038;16.974;2023-07-24T13:27:23;15.90;;;6.90;;
23634;SDS011;11994;51.038;16.974;2023-07-24T13:29:48;11.90;;;7.00;;
23634;SDS011;11994;51.038;16.974;2023-07-24T13:32:13;9.40;;;6.90;;
23634;SDS011;11994;51.038;16.974;2023-07-24T13:34:41;9.90;;;7.00;;
23634;SDS011;11994;51.038;16.974;2023-07-24T13:37:06;11.70;;;6.60;;
23634;SDS011;11994;51.038;16.974;2023-07-24T13:39:31;10.40;;;6.70;;
23634;SDS011;11994;51.038;16.974;2023-07-24T13:41:58;12.00;;;6.80;;
23634;SDS011;11994;51.038;16.974;2023-07-24T13:44:24;10.50;;;6.90;;
23634;SDS011;11994;51.038;16.974;2023-07-24T13:46:49;9.50;;;6.30;;
23634;SDS011;11994;51.038;16.974;2023-07-24T13:49:15;8.00;;;6.50;;
23634;SDS011;11994;51.038;16.974;2023-07-24T13:51:40;13.50;;;7.00;;
23634;SDS011;11994;51.038;16.974;2023-07-24T13:54:05;12.60;;;6.40;;
23634;SDS011;11994;51.038;16.974;2023-07-24T13:56:31;9.60;;;6.70;;
23634;SDS011;11994;51.038;16.974;2023-07-24T13:59:00;9.60;;;6.70;;
23634;SDS011;11994;51.038;16.974;2023-07-24T14:01:25;12.40;;;6.90;;
23634;SDS011;11994;51.038;16.974;2023-07-24T14:03:50;9.50;;;6.90;;
23634;SDS011;11994;51.038;16.974;2023-07-24T14:06:16;13.20;;;7.30;;
23634;SDS011;11994;51.038;16.974;2023-07-24T14:08:41;10.20;;;6.70;;
23634;SDS011;11994;51.038;16.974;2023-07-24T14:11:06;9.90;;;7.20;;
23634;SDS011;11994;51.038;16.974;2023-07-24T14:13:32;9.70;;;6.90;;
23634;SDS011;11994;51.038;16.974;2023-07-24T14:15:57;13.50;;;6.60;;
23634;SDS011;11994;51.038;16.974;2023-07-24T14:18:23;11.70;;;6.20;;
23634;SDS011;11994;51.038;16.974;2023-07-24T14:20:48;11.60;;;7.00;;
23634;SDS011;11994;51.038;16.974;2023-07-24T14:23:13;10.20;;;6.60;;
23634;SDS011;11994;51.038;16.974;2023-07-24T14:25:39;10.50;;;6.40;;
23634;SDS011;11994;51.038;16.974;2023-07-24T14:28:04;10.80;;;6.60;;
23634;SDS011;11994;51.038;16.974;2023-07-24T14:30:29;10.40;;;7.20;;
23634;SDS011;11994;51.038;16.974;2023-07-24T14:32:55;9.30;;;6.60;;
23634;SDS011;11994;51.038;16.974;2023-07-24T14:35:20;10.20;;;6.80;;
23634;SDS011;11994;51.038;16.974;2023-07-24T14:37:46;11.60;;;7.20;;
23634;SDS011;11994;51.038;16.974;2023-07-24T14:40:11;9.40;;;6.70;;